createdAt,value
2023-01-18T18:52:00.358Z,96036.59
2023-01-18T18:54:28.417Z,95970.59
2023-01-18T18:56:56.663Z,95917.63
2023-01-18T18:59:24.725Z,95857.34
2023-01-18T19:01:53.001Z,95789.31
2023-01-18T19:04:21.026Z,95724.09
2023-01-18T19:06:49.091Z,95675.81
2023-01-18T19:09:18.785Z,95716.06
2023-01-18T19:11:54.766Z,95678.50
2023-01-18T19:14:25.822Z,95646.38
2023-01-18T19:16:54.498Z,95636.97
2023-01-18T19:19:23.147Z,95615.44
2023-01-18T19:21:52.140Z,95567.88
2023-01-18T19:24:21.976Z,95525.91
2023-01-18T19:26:55.314Z,95468.84
2023-01-18T19:29:28.517Z,95466.09
2023-01-18T19:31:59.935Z,95414.31
2023-01-18T19:34:28.243Z,95433.97
2023-01-18T19:36:56.274Z,95402.84
2023-01-18T19:39:26.284Z,95315.66
2023-01-18T19:41:54.543Z,95383.13
2023-01-18T19:44:23.269Z,95392.25
2023-01-18T19:46:56.093Z,95327.06
2023-01-18T19:49:25.930Z,95325.09
2023-01-18T19:51:54.646Z,95365.88
2023-01-18T19:54:28.762Z,95370.44
2023-01-18T19:56:56.668Z,95348.63
2023-01-18T19:59:33.647Z,95285.63
2023-01-18T20:02:01.818Z,95295.84
2023-01-18T20:04:30.189Z,95279.91
2023-01-18T20:06:58.705Z,95323.91
2023-01-18T20:09:42.356Z,95356.25
2023-01-18T20:12:12.684Z,95329.66
2023-01-18T20:14:42.583Z,95387.31
2023-01-18T20:17:11.873Z,95399.00
2023-01-18T20:19:40.222Z,95483.63
2023-01-18T20:24:58.021Z,95379.53
2023-01-18T20:27:26.683Z,95284.13
2023-01-18T20:29:54.640Z,95296.38
2023-01-18T20:32:22.741Z,95203.13
2023-01-18T20:34:50.973Z,95226.94
2023-01-18T20:37:19.166Z,95172.75
2023-01-18T20:39:47.472Z,95166.91
2023-01-18T20:42:17.475Z,95155.38
2023-01-18T20:44:49.241Z,95089.66
2023-01-18T20:47:22.779Z,95052.09
2023-01-18T20:49:50.823Z,95031.16
2023-01-18T20:52:19.283Z,95092.13
2023-01-18T20:54:50.301Z,95091.03
2023-01-18T20:57:27.317Z,95073.28
2023-01-18T20:59:55.614Z,95047.72
2023-01-18T21:02:24.313Z,95036.34
2023-01-18T21:04:52.998Z,95026.28
2023-01-18T21:07:21.403Z,95083.53
2023-01-18T21:09:49.669Z,95077.31
2023-01-18T21:12:19.099Z,95089.69
2023-01-18T21:14:47.816Z,95061.41
2023-01-18T21:17:15.900Z,95091.19
2023-01-18T21:19:50.257Z,95065.63
2023-01-18T21:22:18.405Z,95071.16
2023-01-18T21:24:47.259Z,95122.88
2023-01-18T21:27:16.967Z,95152.75
2023-01-18T21:29:46.771Z,95243.00
2023-01-18T21:32:18.103Z,95314.13
2023-01-18T21:34:52.944Z,95342.28
2023-01-18T21:37:21.036Z,95323.84
2023-01-18T21:39:49.297Z,95279.59
2023-01-18T21:42:35.062Z,95269.88
2023-01-18T21:45:22.185Z,95147.19
2023-01-18T21:47:52.887Z,95121.88
2023-01-18T21:50:38.595Z,95098.66
2023-01-18T21:53:34.622Z,95064.81
2023-01-18T21:56:02.961Z,95017.19
2023-01-18T21:58:48.746Z,95037.06
2023-01-18T22:01:23.158Z,95001.66
2023-01-18T22:04:09.548Z,94970.94
2023-01-18T22:06:39.497Z,94946.25
2023-01-18T22:09:08.018Z,94894.13
2023-01-18T22:11:36.650Z,94899.00
2023-01-18T22:14:07.870Z,94864.44
2023-01-18T22:16:38.376Z,94858.91
2023-01-18T22:19:09.448Z,94879.19
2023-01-18T22:21:38.015Z,94892.19
2023-01-18T22:24:06.945Z,94874.34
2023-01-18T22:26:36.427Z,94865.09
2023-01-18T22:29:07.202Z,94916.88
2023-01-18T22:31:37.154Z,94866.53
2023-01-18T22:34:06.248Z,94864.94
2023-01-18T22:36:43.764Z,94868.81
2023-01-18T22:39:12.791Z,94883.44
2023-01-18T22:41:41.028Z,94884.25
2023-01-18T22:44:09.664Z,94889.63
2023-01-18T22:46:39.190Z,94892.22
2023-01-18T22:49:07.500Z,94872.75
2023-01-18T22:51:35.850Z,94860.38
2023-01-18T22:54:03.880Z,94830.22
2023-01-18T22:56:32.004Z,94828.91
2023-01-18T22:59:02.920Z,94840.75
2023-01-18T23:01:33.828Z,94816.59
2023-01-18T23:04:04.771Z,94839.13
2023-01-18T23:06:42.585Z,94839.94
2023-01-18T23:09:11.505Z,94785.41
2023-01-18T23:11:40.763Z,94882.16
2023-01-18T23:14:26.393Z,94841.06
2023-01-18T23:17:11.875Z,94885.41
2023-01-18T23:19:41.619Z,94870.13
2023-01-18T23:22:10.601Z,94910.38
2023-01-18T23:24:39.924Z,94899.50
2023-01-18T23:27:14.011Z,94869.66
2023-01-18T23:29:42.128Z,94827.28
2023-01-18T23:32:10.508Z,94860.22
2023-01-18T23:34:39.228Z,94849.19
2023-01-18T23:37:09.188Z,94803.25
2023-01-18T23:39:54.619Z,94843.19
2023-01-18T23:42:40.037Z,94881.34
2023-01-18T23:45:27.346Z,94883.59
2023-01-18T23:51:42.000Z,94795.97
2023-01-18T23:54:15.977Z,94854.88
2023-01-18T23:56:48.596Z,94824.69
2023-01-18T23:59:16.862Z,94834.44
